sensor_id;sensor_type;location;lat;lon;timestamp;P1;durP1;ratioP1;P2;durP2;ratioP2
33987;SDS011;37428;53.580;-1.666;2023-10-31T00:00:05;4.88;;;3.88;;
33987;SDS011;37428;53.580;-1.666;2023-10-31T00:03:10;9.82;;;4.78;;
33987;SDS011;37428;53.580;-1.666;2023-10-31T00:06:20;20.27;;;7.88;;
33987;SDS011;37428;53.580;-1.666;2023-10-31T00:09:23;8.25;;;4.63;;
33987;SDS011;37428;53.580;-1.666;2023-10-31T00:12:27;8.48;;;5.90;;
33987;SDS011;37428;53.580;-1.666;2023-10-31T00:15:30;5.40;;;4.45;;
33987;SDS011;37428;53.580;-1.666;2023-10-31T00:18:32;6.28;;;4.78;;
33987;SDS011;37428;53.580;-1.666;2023-10-31T00:21:38;6.63;;;5.55;;
33987;SDS011;37428;53.580;-1.666;2023-10-31T00:24:41;6.22;;;5.15;;
33987;SDS011;37428;53.580;-1.666;2023-10-31T00:27:48;5.68;;;4.80;;
33987;SDS011;37428;53.580;-1.666;2023-10-31T00:30:50;11.20;;;5.88;;
33987;SDS011;37428;53.580;-1.666;2023-10-31T00:33:52;9.20;;;5.00;;
33987;SDS011;37428;53.580;-1.666;2023-10-31T00:36:59;93.78;;;8.45;;
33987;SDS011;37428;53.580;-1.666;2023-10-31T00:40:02;11.45;;;4.40;;
33987;SDS011;37428;53.580;-1.666;2023-10-31T00:43:06;22.83;;;7.05;;
33987;SDS011;37428;53.580;-1.666;2023-10-31T00:46:14;99.22;;;7.50;;
33987;SDS011;37428;53.580;-1.666;2023-10-31T00:49:16;95.07;;;7.63;;
33987;SDS011;37428;53.580;-1.666;2023-10-31T00:52:24;78.97;;;9.07;;
33987;SDS011;37428;53.580;-1.666;2023-10-31T00:55:29;19.58;;;4.70;;
33987;SDS011;37428;53.580;-1.666;2023-10-31T00:58:39;34.58;;;6.85;;
33987;SDS011;37428;53.580;-1.666;2023-10-31T01:01:44;16.00;;;5.53;;
33987;SDS011;37428;53.580;-1.666;2023-10-31T01:04:47;16.88;;;7.18;;
33987;SDS011;37428;53.580;-1.666;2023-10-31T01:07:50;4.38;;;3.97;;
33987;SDS011;37428;53.580;-1.666;2023-10-31T01:10:54;7.43;;;5.15;;
33987;SDS011;37428;53.580;-1.666;2023-10-31T01:13:59;8.60;;;4.50;;
33987;SDS011;37428;53.580;-1.666;2023-10-31T01:17:01;8.88;;;4.93;;
33987;SDS011;37428;53.580;-1.666;2023-10-31T01:20:09;5.88;;;4.32;;
33987;SDS011;37428;53.580;-1.666;2023-10-31T01:23:19;13.27;;;5.30;;
33987;SDS011;37428;53.580;-1.666;2023-10-31T01:26:22;9.55;;;5.35;;
33987;SDS011;37428;53.580;-1.666;2023-10-31T01:29:42;7.47;;;3.83;;
33987;SDS011;37428;53.580;-1.666;2023-10-31T01:32:48;6.38;;;3.72;;
33987;SDS011;37428;53.580;-1.666;2023-10-31T01:35:57;6.30;;;3.45;;
33987;SDS011;37428;53.580;-1.666;2023-10-31T01:39:01;8.00;;;3.72;;
33987;SDS011;37428;53.580;-1.666;2023-10-31T01:42:36;5.30;;;3.08;;
33987;SDS011;37428;53.580;-1.666;2023-10-31T01:45:31;9.00;;;5.68;;
33987;SDS011;37428;53.580;-1.666;2023-10-31T01:48:35;3.42;;;2.97;;
33987;SDS011;37428;53.580;-1.666;2023-10-31T01:51:49;5.95;;;3.83;;
33987;SDS011;37428;53.580;-1.666;2023-10-31T01:54:51;3.70;;;3.33;;
33987;SDS011;37428;53.580;-1.666;2023-10-31T01:57:54;4.97;;;3.45;;
33987;SDS011;37428;53.580;-1.666;2023-10-31T02:00:57;7.50;;;4.97;;
33987;SDS011;37428;53.580;-1.666;2023-10-31T02:04:05;4.75;;;4.35;;
33987;SDS011;37428;53.580;-1.666;2023-10-31T02:07:07;9.48;;;6.35;;
33987;SDS011;37428;53.580;-1.666;2023-10-31T02:10:09;8.52;;;5.03;;
33987;SDS011;37428;53.580;-1.666;2023-10-31T02:13:11;6.53;;;5.20;;
33987;SDS011;37428;53.580;-1.666;2023-10-31T02:16:15;12.07;;;5.82;;
33987;SDS011;37428;53.580;-1.666;2023-10-31T02:19:23;14.88;;;7.30;;
33987;SDS011;37428;53.580;-1.666;2023-10-31T02:22:31;4.85;;;4.30;;
33987;SDS011;37428;53.580;-1.666;2023-10-31T02:25:34;7.15;;;5.88;;
33987;SDS011;37428;53.580;-1.666;2023-10-31T02:28:37;5.90;;;4.93;;
33987;SDS011;37428;53.580;-1.666;2023-10-31T02:31:49;9.70;;;6.68;;
33987;SDS011;37428;53.580;-1.666;2023-10-31T02:34:54;8.82;;;4.85;;
33987;SDS011;37428;53.580;-1.666;2023-10-31T02:37:58;4.05;;;3.65;;
33987;SDS011;37428;53.580;-1.666;2023-10-31T02:41:00;4.53;;;3.72;;
33987;SDS011;37428;53.580;-1.666;2023-10-31T02:44:04;6.32;;;4.78;;
33987;SDS011;37428;53.580;-1.666;2023-10-31T02:47:06;5.10;;;4.00;;
33987;SDS011;37428;53.580;-1.666;2023-10-31T02:50:12;5.93;;;4.18;;
33987;SDS011;37428;53.580;-1.666;2023-10-31T02:53:18;14.88;;;5.82;;
33987;SDS011;37428;53.580;-1.666;2023-10-31T02:56:20;6.45;;;4.25;;
33987;SDS011;37428;53.580;-1.666;2023-10-31T02:59:23;7.90;;;3.47;;
33987;SDS011;37428;53.580;-1.666;2023-10-31T03:02:45;4.15;;;3.00;;
33987;SDS011;37428;53.580;-1.666;2023-10-31T03:06:08;7.90;;;3.15;;
33987;SDS011;37428;53.580;-1.666;2023-10-31T03:09:11;6.25;;;3.58;;
33987;SDS011;37428;53.580;-1.666;2023-10-31T03:12:14;5.60;;;3.47;;
33987;SDS011;37428;53.580;-1.666;2023-10-31T03:15:18;4.53;;;3.42;;
33987;SDS011;37428;53.580;-1.666;2023-10-31T03:18:29;13.23;;;4.93;;
33987;SDS011;37428;53.580;-1.666;2023-10-31T03:21:33;15.07;;;5.45;;
33987;SDS011;37428;53.580;-1.666;2023-10-31T03:24:39;9.88;;;5.28;;
33987;SDS011;37428;53.580;-1.666;2023-10-31T03:27:41;7.82;;;4.15;;
33987;SDS011;37428;53.580;-1.666;2023-10-31T03:30:46;12.07;;;4.35;;
33987;SDS011;37428;53.580;-1.666;2023-10-31T03:33:49;11.50;;;6.13;;
33987;SDS011;37428;53.580;-1.666;2023-10-31T03:36:51;11.25;;;5.22;;
33987;SDS011;37428;53.580;-1.666;2023-10-31T03:39:55;15.63;;;5.47;;
33987;SDS011;37428;53.580;-1.666;2023-10-31T03:42:58;12.57;;;6.03;;
33987;SDS011;37428;53.580;-1.666;2023-10-31T03:46:00;4.30;;;3.90;;
33987;SDS011;37428;53.580;-1.666;2023-10-31T03:49:12;5.60;;;4.65;;
33987;SDS011;37428;53.580;-1.666;2023-10-31T03:52:14;7.68;;;4.50;;
33987;SDS011;37428;53.580;-1.666;2023-10-31T03:55:19;10.93;;;5.97;;
33987;SDS011;37428;53.580;-1.666;2023-10-31T03:58:23;10.55;;;4.47;;
33987;SDS011;37428;53.580;-1.666;2023-10-31T04:01:25;12.85;;;5.95;;
33987;SDS011;37428;53.580;-1.666;2023-10-31T04:04:29;5.28;;;4.10;;
33987;SDS011;37428;53.580;-1.666;2023-10-31T04:07:31;5.50;;;3.95;;
33987;SDS011;37428;53.580;-1.666;2023-10-31T04:10:43;9.00;;;4.47;;
33987;SDS011;37428;53.580;-1.666;2023-10-31T04:13:46;4.13;;;3.83;;
33987;SDS011;37428;53.580;-1.666;2023-10-31T04:16:48;10.65;;;6.47;;
33987;SDS011;37428;53.580;-1.666;2023-10-31T04:19:50;9.65;;;5.88;;
33987;SDS011;37428;53.580;-1.666;2023-10-31T04:22:52;4.32;;;3.92;;
33987;SDS011;37428;53.580;-1.666;2023-10-31T04:25:56;10.63;;;4.75;;
33987;SDS011;37428;53.580;-1.666;2023-10-31T04:29:13;13.02;;;5.97;;
33987;SDS011;37428;53.580;-1.666;2023-10-31T04:32:16;21.23;;;7.15;;
33987;SDS011;37428;53.580;-1.666;2023-10-31T04:35:19;24.25;;;5.97;;
33987;SDS011;37428;53.580;-1.666;2023-10-31T04:38:23;7.55;;;5.03;;
33987;SDS011;37428;53.580;-1.666;2023-10-31T04:41:28;4.07;;;3.78;;
33987;SDS011;37428;53.580;-1.666;2023-10-31T04:44:30;5.88;;;4.85;;
33987;SDS011;37428;53.580;-1.666;2023-10-31T04:47:36;4.78;;;4.35;;
33987;SDS011;37428;53.580;-1.666;2023-10-31T04:50:40;7.00;;;4.15;;
33987;SDS011;37428;53.580;-1.666;2023-10-31T04:53:44;47.35;;;8.15;;
33987;SDS011;37428;53.580;-1.666;2023-10-31T04:57:00;5.28;;;4.38;;
33987;SDS011;37428;53.580;-1.666;2023-10-31T05:00:26;3.85;;;3.45;;
33987;SDS011;37428;53.580;-1.666;2023-10-31T05:03:28;3.83;;;3.45;;
33987;SDS011;37428;53.580;-1.666;2023-10-31T05:06:30;3.50;;;3.17;;
33987;SDS011;37428;53.580;-1.666;2023-10-31T05:09:32;5.95;;;4.22;;
33987;SDS011;37428;53.580;-1.666;2023-10-31T05:12:39;25.98;;;5.20;;
33987;SDS011;37428;53.580;-1.666;2023-10-31T05:15:41;11.00;;;4.00;;
33987;SDS011;37428;53.580;-1.666;2023-10-31T05:18:57;5.10;;;3.40;;
33987;SDS011;37428;53.580;-1.666;2023-10-31T05:22:04;2.63;;;2.42;;
33987;SDS011;37428;53.580;-1.666;2023-10-31T05:25:38;2.92;;;2.70;;
33987;SDS011;37428;53.580;-1.666;2023-10-31T05:28:46;4.30;;;2.97;;
33987;SDS011;37428;53.580;-1.666;2023-10-31T05:31:48;35.65;;;4.28;;
33987;SDS011;37428;53.580;-1.666;2023-10-31T05:34:52;8.30;;;2.83;;
33987;SDS011;37428;53.580;-1.666;2023-10-31T05:37:55;32.25;;;4.50;;
33987;SDS011;37428;53.580;-1.666;2023-10-31T05:40:57;8.93;;;3.15;;
33987;SDS011;37428;53.580;-1.666;2023-10-31T05:44:11;4.15;;;3.15;;
33987;SDS011;37428;53.580;-1.666;2023-10-31T05:47:15;11.70;;;3.58;;
33987;SDS011;37428;53.580;-1.666;2023-10-31T05:50:35;3.47;;;2.95;;
33987;SDS011;37428;53.580;-1.666;2023-10-31T05:54:01;43.10;;;6.07;;
33987;SDS011;37428;53.580;-1.666;2023-10-31T05:57:06;45.78;;;4.40;;
33987;SDS011;37428;53.580;-1.666;2023-10-31T06:00:12;3.45;;;3.15;;
33987;SDS011;37428;53.580;-1.666;2023-10-31T06:03:15;5.93;;;3.03;;
33987;SDS011;37428;53.580;-1.666;2023-10-31T06:06:18;143.48;;;6.78;;
33987;SDS011;37428;53.580;-1.666;2023-10-31T06:09:35;26.38;;;3.50;;
33987;SDS011;37428;53.580;-1.666;2023-10-31T06:12:38;106.30;;;5.65;;
33987;SDS011;37428;53.580;-1.666;2023-10-31T06:15:56;73.50;;;4.70;;
33987;SDS011;37428;53.580;-1.666;2023-10-31T06:18:59;42.40;;;3.50;;
33987;SDS011;37428;53.580;-1.666;2023-10-31T06:22:02;47.25;;;4.03;;
33987;SDS011;37428;53.580;-1.666;2023-10-31T06:25:06;20.38;;;3.72;;
33987;SDS011;37428;53.580;-1.666;2023-10-31T06:28:10;201.77;;;9.48;;
33987;SDS011;37428;53.580;-1.666;2023-10-31T06:31:15;62.50;;;5.80;;
33987;SDS011;37428;53.580;-1.666;2023-10-31T06:34:17;32.97;;;4.57;;
33987;SDS011;37428;53.580;-1.666;2023-10-31T06:37:52;22.05;;;4.22;;
33987;SDS011;37428;53.580;-1.666;2023-10-31T06:43:50;8.50;;;4.47;;
33987;SDS011;37428;53.580;-1.666;2023-10-31T06:46:54;30.30;;;5.13;;
33987;SDS011;37428;53.580;-1.666;2023-10-31T06:49:56;22.02;;;4.85;;
33987;SDS011;37428;53.580;-1.666;2023-10-31T06:53:01;149.52;;;7.78;;
33987;SDS011;37428;53.580;-1.666;2023-10-31T06:56:08;104.43;;;6.38;;
33987;SDS011;37428;53.580;-1.666;2023-10-31T06:59:12;61.25;;;6.82;;
33987;SDS011;37428;53.580;-1.666;2023-10-31T07:02:15;79.95;;;7.28;;
33987;SDS011;37428;53.580;-1.666;2023-10-31T07:05:17;14.25;;;5.65;;
33987;SDS011;37428;53.580;-1.666;2023-10-31T07:08:26;110.25;;;8.43;;
33987;SDS011;37428;53.580;-1.666;2023-10-31T07:11:29;381.08;;;15.60;;
33987;SDS011;37428;53.580;-1.666;2023-10-31T07:14:36;220.25;;;12.60;;
33987;SDS011;37428;53.580;-1.666;2023-10-31T07:17:43;157.77;;;10.15;;
33987;SDS011;37428;53.580;-1.666;2023-10-31T07:20:47;126.82;;;11.20;;
33987;SDS011;37428;53.580;-1.666;2023-10-31T07:23:56;102.00;;;9.75;;
33987;SDS011;37428;53.580;-1.666;2023-10-31T07:26:58;285.75;;;18.98;;
33987;SDS011;37428;53.580;-1.666;2023-10-31T07:30:01;37.40;;;9.30;;
33987;SDS011;37428;53.580;-1.666;2023-10-31T07:33:11;143.05;;;12.18;;
33987;SDS011;37428;53.580;-1.666;2023-10-31T07:36:14;159.02;;;12.52;;
33987;SDS011;37428;53.580;-1.666;2023-10-31T07:39:18;201.30;;;15.02;;
33987;SDS011;37428;53.580;-1.666;2023-10-31T07:42:35;530.30;;;23.95;;
33987;SDS011;37428;53.580;-1.666;2023-10-31T07:45:44;146.05;;;12.63;;
33987;SDS011;37428;53.580;-1.666;2023-10-31T07:48:52;29.77;;;9.38;;
33987;SDS011;37428;53.580;-1.666;2023-10-31T07:51:54;152.05;;;13.25;;
33987;SDS011;37428;53.580;-1.666;2023-10-31T07:54:56;150.00;;;10.85;;
33987;SDS011;37428;53.580;-1.666;2023-10-31T07:57:58;34.88;;;8.38;;
33987;SDS011;37428;53.580;-1.666;2023-10-31T08:01:00;214.55;;;15.02;;
33987;SDS011;37428;53.580;-1.666;2023-10-31T08:07:30;29.77;;;8.63;;
33987;SDS011;37428;53.580;-1.666;2023-10-31T08:10:38;79.20;;;13.30;;
33987;SDS011;37428;53.580;-1.666;2023-10-31T08:13:46;23.33;;;12.52;;
33987;SDS011;37428;53.580;-1.666;2023-10-31T08:17:12;78.53;;;12.32;;
33987;SDS011;37428;53.580;-1.666;2023-10-31T08:20:23;59.83;;;9.25;;
33987;SDS011;37428;53.580;-1.666;2023-10-31T08:23:32;31.15;;;8.93;;
33987;SDS011;37428;53.580;-1.666;2023-10-31T08:26:36;120.82;;;10.52;;
33987;SDS011;37428;53.580;-1.666;2023-10-31T08:29:38;20.77;;;8.52;;
33987;SDS011;37428;53.580;-1.666;2023-10-31T08:32:42;223.43;;;13.10;;
33987;SDS011;37428;53.580;-1.666;2023-10-31T08:35:49;63.25;;;8.68;;
33987;SDS011;37428;53.580;-1.666;2023-10-31T08:38:57;176.23;;;10.68;;
33987;SDS011;37428;53.580;-1.666;2023-10-31T08:42:30;18.85;;;7.38;;
33987;SDS011;37428;53.580;-1.666;2023-10-31T08:45:58;22.70;;;5.68;;
33987;SDS011;37428;53.580;-1.666;2023-10-31T08:49:02;19.52;;;6.88;;
33987;SDS011;37428;53.580;-1.666;2023-10-31T08:52:24;132.65;;;12.35;;
33987;SDS011;37428;53.580;-1.666;2023-10-31T08:55:26;5.88;;;5.35;;
33987;SDS011;37428;53.580;-1.666;2023-10-31T08:58:30;61.17;;;7.20;;
33987;SDS011;37428;53.580;-1.666;2023-10-31T09:01:57;55.30;;;7.47;;
33987;SDS011;37428;53.580;-1.666;2023-10-31T09:04:59;7.90;;;5.35;;
33987;SDS011;37428;53.580;-1.666;2023-10-31T09:08:06;59.13;;;8.90;;
33987;SDS011;37428;53.580;-1.666;2023-10-31T09:11:41;7.50;;;5.50;;
33987;SDS011;37428;53.580;-1.666;2023-10-31T09:14:54;5.85;;;5.35;;
33987;SDS011;37428;53.580;-1.666;2023-10-31T09:18:04;5.49;;;4.57;;
33987;SDS011;37428;53.580;-1.666;2023-10-31T09:21:19;5.72;;;5.22;;
33987;SDS011;37428;53.580;-1.666;2023-10-31T09:24:24;4.28;;;3.88;;
33987;SDS011;37428;53.580;-1.666;2023-10-31T09:27:29;6.78;;;6.18;;
33987;SDS011;37428;53.580;-1.666;2023-10-31T09:30:33;5.93;;;5.32;;
33987;SDS011;37428;53.580;-1.666;2023-10-31T09:33:37;5.13;;;4.63;;
33987;SDS011;37428;53.580;-1.666;2023-10-31T09:36:49;5.20;;;4.60;;
33987;SDS011;37428;53.580;-1.666;2023-10-31T09:39:55;5.20;;;4.70;;
33987;SDS011;37428;53.580;-1.666;2023-10-31T09:42:57;5.68;;;4.78;;
33987;SDS011;37428;53.580;-1.666;2023-10-31T09:45:59;5.57;;;5.07;;
33987;SDS011;37428;53.580;-1.666;2023-10-31T09:49:03;4.15;;;3.85;;
33987;SDS011;37428;53.580;-1.666;2023-10-31T09:55:09;9.30;;;6.20;;
33987;SDS011;37428;53.580;-1.666;2023-10-31T09:58:12;4.82;;;4.43;;
33987;SDS011;37428;53.580;-1.666;2023-10-31T10:01:15;5.65;;;5.15;;
33987;SDS011;37428;53.580;-1.666;2023-10-31T10:04:17;9.48;;;6.80;;
33987;SDS011;37428;53.580;-1.666;2023-10-31T10:07:19;8.60;;;6.35;;
33987;SDS011;37428;53.580;-1.666;2023-10-31T10:10:23;7.65;;;6.95;;
33987;SDS011;37428;53.580;-1.666;2023-10-31T10:13:27;13.63;;;6.32;;
33987;SDS011;37428;53.580;-1.666;2023-10-31T10:16:30;44.88;;;9.57;;
33987;SDS011;37428;53.580;-1.666;2023-10-31T10:19:39;10.35;;;4.85;;
33987;SDS011;37428;53.580;-1.666;2023-10-31T10:22:41;16.95;;;4.80;;
33987;SDS011;37428;53.580;-1.666;2023-10-31T10:25:50;80.93;;;7.97;;
33987;SDS011;37428;53.580;-1.666;2023-10-31T10:28:59;38.22;;;4.78;;
33987;SDS011;37428;53.580;-1.666;2023-10-31T10:32:04;47.03;;;6.70;;
33987;SDS011;37428;53.580;-1.666;2023-10-31T10:35:15;13.10;;;6.82;;
33987;SDS011;37428;53.580;-1.666;2023-10-31T10:38:19;18.67;;;7.28;;
33987;SDS011;37428;53.580;-1.666;2023-10-31T10:41:22;42.72;;;8.13;;
33987;SDS011;37428;53.580;-1.666;2023-10-31T10:44:30;50.40;;;6.85;;
33987;SDS011;37428;53.580;-1.666;2023-10-31T10:47:35;5.20;;;4.75;;
33987;SDS011;37428;53.580;-1.666;2023-10-31T10:51:04;40.42;;;12.60;;
33987;SDS011;37428;53.580;-1.666;2023-10-31T10:54:23;10.60;;;7.95;;
33987;SDS011;37428;53.580;-1.666;2023-10-31T10:57:55;10.25;;;8.02;;
33987;SDS011;37428;53.580;-1.666;2023-10-31T11:01:07;4.55;;;4.10;;
33987;SDS011;37428;53.580;-1.666;2023-10-31T11:04:44;5.57;;;4.50;;
33987;SDS011;37428;53.580;-1.666;2023-10-31T11:08:03;24.73;;;7.00;;
33987;SDS011;37428;53.580;-1.666;2023-10-31T11:11:43;21.30;;;9.30;;
33987;SDS011;37428;53.580;-1.666;2023-10-31T11:14:52;4.15;;;3.85;;
33987;SDS011;37428;53.580;-1.666;2023-10-31T11:18:14;5.13;;;4.70;;
33987;SDS011;37428;53.580;-1.666;2023-10-31T11:21:17;3.90;;;3.60;;
33987;SDS011;37428;53.580;-1.666;2023-10-31T11:24:20;4.78;;;4.38;;
33987;SDS011;37428;53.580;-1.666;2023-10-31T11:27:24;4.13;;;3.58;;
33987;SDS011;37428;53.580;-1.666;2023-10-31T11:34:01;20.15;;;5.43;;
33987;SDS011;37428;53.580;-1.666;2023-10-31T11:37:19;3.67;;;3.38;;
33987;SDS011;37428;53.580;-1.666;2023-10-31T11:40:26;10.68;;;5.47;;
33987;SDS011;37428;53.580;-1.666;2023-10-31T11:43:37;5.03;;;4.63;;
33987;SDS011;37428;53.580;-1.666;2023-10-31T11:46:58;5.65;;;5.13;;
33987;SDS011;37428;53.580;-1.666;2023-10-31T11:50:01;10.70;;;5.90;;
33987;SDS011;37428;53.580;-1.666;2023-10-31T11:53:11;3.28;;;3.08;;
33987;SDS011;37428;53.580;-1.666;2023-10-31T11:56:15;4.85;;;4.13;;
33987;SDS011;37428;53.580;-1.666;2023-10-31T11:59:21;78.13;;;7.32;;
33987;SDS011;37428;53.580;-1.666;2023-10-31T12:02:35;13.48;;;6.13;;
33987;SDS011;37428;53.580;-1.666;2023-10-31T12:05:57;9.50;;;6.80;;
33987;SDS011;37428;53.580;-1.666;2023-10-31T12:09:21;9.65;;;5.18;;
33987;SDS011;37428;53.580;-1.666;2023-10-31T12:12:31;6.65;;;6.15;;
33987;SDS011;37428;53.580;-1.666;2023-10-31T12:15:34;6.03;;;5.43;;
33987;SDS011;37428;53.580;-1.666;2023-10-31T12:18:37;21.80;;;7.88;;
33987;SDS011;37428;53.580;-1.666;2023-10-31T12:21:41;9.65;;;7.05;;
33987;SDS011;37428;53.580;-1.666;2023-10-31T12:24:47;29.65;;;10.63;;
33987;SDS011;37428;53.580;-1.666;2023-10-31T12:27:51;5.10;;;4.60;;
33987;SDS011;37428;53.580;-1.666;2023-10-31T12:30:53;10.98;;;8.13;;
33987;SDS011;37428;53.580;-1.666;2023-10-31T12:33:58;25.77;;;10.77;;
33987;SDS011;37428;53.580;-1.666;2023-10-31T12:37:08;10.25;;;6.80;;
33987;SDS011;37428;53.580;-1.666;2023-10-31T12:40:37;7.10;;;6.40;;
33987;SDS011;37428;53.580;-1.666;2023-10-31T12:43:50;21.58;;;15.98;;
33987;SDS011;37428;53.580;-1.666;2023-10-31T12:46:53;98.85;;;42.92;;
33987;SDS011;37428;53.580;-1.666;2023-10-31T12:50:09;50.03;;;23.52;;
33987;SDS011;37428;53.580;-1.666;2023-10-31T12:53:36;50.65;;;16.85;;
33987;SDS011;37428;53.580;-1.666;2023-10-31T12:56:40;6.53;;;5.82;;
33987;SDS011;37428;53.580;-1.666;2023-10-31T12:59:59;49.35;;;16.90;;
33987;SDS011;37428;53.580;-1.666;2023-10-31T13:03:03;34.25;;;15.18;;
33987;SDS011;37428;53.580;-1.666;2023-10-31T13:06:14;11.95;;;8.90;;
33987;SDS011;37428;53.580;-1.666;2023-10-31T13:09:18;19.27;;;7.57;;
33987;SDS011;37428;53.580;-1.666;2023-10-31T13:12:20;103.13;;;14.25;;
33987;SDS011;37428;53.580;-1.666;2023-10-31T13:15:26;30.88;;;5.00;;
33987;SDS011;37428;53.580;-1.666;2023-10-31T13:18:29;6.57;;;5.88;;
33987;SDS011;37428;53.580;-1.666;2023-10-31T13:24:58;7.25;;;4.93;;
33987;SDS011;37428;53.580;-1.666;2023-10-31T13:28:16;161.15;;;12.88;;
33987;SDS011;37428;53.580;-1.666;2023-10-31T13:31:23;158.20;;;13.75;;
33987;SDS011;37428;53.580;-1.666;2023-10-31T13:34:27;12.63;;;5.85;;
33987;SDS011;37428;53.580;-1.666;2023-10-31T13:37:41;10.05;;;8.32;;
33987;SDS011;37428;53.580;-1.666;2023-10-31T13:40:43;29.13;;;13.27;;
33987;SDS011;37428;53.580;-1.666;2023-10-31T13:43:48;17.05;;;5.15;;
33987;SDS011;37428;53.580;-1.666;2023-10-31T13:46:50;90.20;;;9.85;;
33987;SDS011;37428;53.580;-1.666;2023-10-31T13:50:02;7.55;;;4.50;;
33987;SDS011;37428;53.580;-1.666;2023-10-31T13:53:09;55.15;;;9.63;;
33987;SDS011;37428;53.580;-1.666;2023-10-31T13:56:13;7.20;;;6.13;;
33987;SDS011;37428;53.580;-1.666;2023-10-31T13:59:19;7.80;;;7.10;;
33987;SDS011;37428;53.580;-1.666;2023-10-31T14:02:25;15.65;;;8.10;;
33987;SDS011;37428;53.580;-1.666;2023-10-31T14:05:30;7.97;;;7.18;;
33987;SDS011;37428;53.580;-1.666;2023-10-31T14:08:33;12.30;;;8.05;;
33987;SDS011;37428;53.580;-1.666;2023-10-31T14:11:49;10.52;;;6.72;;
33987;SDS011;37428;53.580;-1.666;2023-10-31T14:15:24;5.45;;;5.05;;
33987;SDS011;37428;53.580;-1.666;2023-10-31T14:21:20;21.45;;;12.70;;
33987;SDS011;37428;53.580;-1.666;2023-10-31T14:24:24;6.75;;;4.88;;
33987;SDS011;37428;53.580;-1.666;2023-10-31T14:27:26;16.83;;;9.07;;
33987;SDS011;37428;53.580;-1.666;2023-10-31T14:30:28;3.22;;;2.95;;
33987;SDS011;37428;53.580;-1.666;2023-10-31T14:33:30;4.07;;;3.70;;
33987;SDS011;37428;53.580;-1.666;2023-10-31T14:36:32;4.35;;;4.05;;
33987;SDS011;37428;53.580;-1.666;2023-10-31T14:39:38;6.85;;;4.85;;
33987;SDS011;37428;53.580;-1.666;2023-10-31T14:42:40;5.55;;;5.07;;
33987;SDS011;37428;53.580;-1.666;2023-10-31T14:45:42;5.55;;;5.00;;
33987;SDS011;37428;53.580;-1.666;2023-10-31T14:51:46;7.10;;;5.18;;
33987;SDS011;37428;53.580;-1.666;2023-10-31T14:54:55;4.43;;;3.03;;
33987;SDS011;37428;53.580;-1.666;2023-10-31T14:58:11;4.95;;;4.00;;
33987;SDS011;37428;53.580;-1.666;2023-10-31T15:01:13;5.68;;;3.88;;
33987;SDS011;37428;53.580;-1.666;2023-10-31T15:04:16;5.60;;;5.10;;
33987;SDS011;37428;53.580;-1.666;2023-10-31T15:07:18;5.40;;;4.97;;
33987;SDS011;37428;53.580;-1.666;2023-10-31T15:10:21;4.05;;;3.75;;
33987;SDS011;37428;53.580;-1.666;2023-10-31T15:13:41;4.07;;;3.78;;
33987;SDS011;37428;53.580;-1.666;2023-10-31T15:17:03;10.20;;;5.95;;
33987;SDS011;37428;53.580;-1.666;2023-10-31T15:20:14;6.47;;;5.25;;
33987;SDS011;37428;53.580;-1.666;2023-10-31T15:23:17;18.40;;;11.40;;
33987;SDS011;37428;53.580;-1.666;2023-10-31T15:26:20;12.32;;;8.05;;
33987;SDS011;37428;53.580;-1.666;2023-10-31T15:29:25;13.45;;;8.23;;
33987;SDS011;37428;53.580;-1.666;2023-10-31T15:32:27;15.18;;;8.82;;
33987;SDS011;37428;53.580;-1.666;2023-10-31T15:35:31;30.95;;;8.38;;
33987;SDS011;37428;53.580;-1.666;2023-10-31T15:38:49;23.48;;;10.75;;
33987;SDS011;37428;53.580;-1.666;2023-10-31T15:41:54;7.55;;;5.88;;
33987;SDS011;37428;53.580;-1.666;2023-10-31T15:44:56;20.85;;;8.63;;
33987;SDS011;37428;53.580;-1.666;2023-10-31T15:48:06;10.45;;;7.05;;
33987;SDS011;37428;53.580;-1.666;2023-10-31T15:51:14;18.10;;;9.55;;
33987;SDS011;37428;53.580;-1.666;2023-10-31T15:54:16;30.08;;;11.77;;
33987;SDS011;37428;53.580;-1.666;2023-10-31T15:57:21;26.17;;;13.57;;
33987;SDS011;37428;53.580;-1.666;2023-10-31T16:00:24;53.40;;;16.50;;
33987;SDS011;37428;53.580;-1.666;2023-10-31T16:03:27;12.27;;;10.98;;
33987;SDS011;37428;53.580;-1.666;2023-10-31T16:06:44;97.40;;;17.55;;
33987;SDS011;37428;53.580;-1.666;2023-10-31T16:09:48;74.95;;;21.35;;
33987;SDS011;37428;53.580;-1.666;2023-10-31T16:12:59;34.50;;;15.90;;
33987;SDS011;37428;53.580;-1.666;2023-10-31T16:16:21;17.77;;;11.50;;
33987;SDS011;37428;53.580;-1.666;2023-10-31T16:19:25;11.45;;;10.45;;
33987;SDS011;37428;53.580;-1.666;2023-10-31T16:22:29;10.93;;;9.82;;
33987;SDS011;37428;53.580;-1.666;2023-10-31T16:25:33;11.30;;;10.20;;
33987;SDS011;37428;53.580;-1.666;2023-10-31T16:28:40;10.98;;;9.98;;
33987;SDS011;37428;53.580;-1.666;2023-10-31T16:31:45;47.13;;;16.17;;
33987;SDS011;37428;53.580;-1.666;2023-10-31T16:37:51;10.75;;;9.85;;
33987;SDS011;37428;53.580;-1.666;2023-10-31T16:40:56;10.65;;;9.77;;
33987;SDS011;37428;53.580;-1.666;2023-10-31T16:44:02;13.48;;;11.38;;
33987;SDS011;37428;53.580;-1.666;2023-10-31T16:47:06;9.80;;;9.02;;
33987;SDS011;37428;53.580;-1.666;2023-10-31T16:50:09;10.98;;;9.98;;
33987;SDS011;37428;53.580;-1.666;2023-10-31T16:53:28;30.73;;;16.00;;
33987;SDS011;37428;53.580;-1.666;2023-10-31T16:56:31;24.42;;;14.02;;
33987;SDS011;37428;53.580;-1.666;2023-10-31T16:59:37;13.00;;;11.60;;
33987;SDS011;37428;53.580;-1.666;2023-10-31T17:02:39;18.02;;;12.15;;
33987;SDS011;37428;53.580;-1.666;2023-10-31T17:05:41;14.20;;;12.80;;
33987;SDS011;37428;53.580;-1.666;2023-10-31T17:08:43;30.42;;;17.35;;
33987;SDS011;37428;53.580;-1.666;2023-10-31T17:11:45;27.00;;;15.75;;
33987;SDS011;37428;53.580;-1.666;2023-10-31T17:14:48;11.90;;;10.65;;
33987;SDS011;37428;53.580;-1.666;2023-10-31T17:17:53;19.88;;;14.27;;
33987;SDS011;37428;53.580;-1.666;2023-10-31T17:21:01;25.73;;;17.30;;
33987;SDS011;37428;53.580;-1.666;2023-10-31T17:24:06;46.17;;;24.08;;
33987;SDS011;37428;53.580;-1.666;2023-10-31T17:27:14;108.45;;;47.95;;
33987;SDS011;37428;53.580;-1.666;2023-10-31T17:33:49;18.80;;;15.93;;
33987;SDS011;37428;53.580;-1.666;2023-10-31T17:36:51;15.95;;;14.30;;
33987;SDS011;37428;53.580;-1.666;2023-10-31T17:40:04;25.98;;;17.77;;
33987;SDS011;37428;53.580;-1.666;2023-10-31T17:43:06;24.27;;;17.48;;
33987;SDS011;37428;53.580;-1.666;2023-10-31T17:46:10;30.60;;;17.42;;
33987;SDS011;37428;53.580;-1.666;2023-10-31T17:49:12;20.15;;;16.83;;
33987;SDS011;37428;53.580;-1.666;2023-10-31T17:52:15;19.15;;;16.17;;
33987;SDS011;37428;53.580;-1.666;2023-10-31T17:55:23;22.38;;;16.40;;
33987;SDS011;37428;53.580;-1.666;2023-10-31T17:58:29;30.20;;;17.23;;
33987;SDS011;37428;53.580;-1.666;2023-10-31T18:01:33;34.22;;;18.30;;
33987;SDS011;37428;53.580;-1.666;2023-10-31T18:04:35;18.95;;;15.45;;
33987;SDS011;37428;53.580;-1.666;2023-10-31T18:07:37;114.90;;;22.15;;
33987;SDS011;37428;53.580;-1.666;2023-10-31T18:10:40;27.33;;;18.80;;
33987;SDS011;37428;53.580;-1.666;2023-10-31T18:13:44;18.23;;;16.35;;
33987;SDS011;37428;53.580;-1.666;2023-10-31T18:16:49;30.77;;;15.60;;
33987;SDS011;37428;53.580;-1.666;2023-10-31T18:19:51;20.77;;;16.67;;
33987;SDS011;37428;53.580;-1.666;2023-10-31T18:26:16;37.20;;;17.50;;
33987;SDS011;37428;53.580;-1.666;2023-10-31T18:29:18;90.20;;;18.15;;
33987;SDS011;37428;53.580;-1.666;2023-10-31T18:32:24;18.98;;;15.55;;
33987;SDS011;37428;53.580;-1.666;2023-10-31T18:35:32;261.90;;;22.97;;
33987;SDS011;37428;53.580;-1.666;2023-10-31T18:38:39;30.55;;;17.88;;
33987;SDS011;37428;53.580;-1.666;2023-10-31T18:41:43;394.75;;;26.70;;
33987;SDS011;37428;53.580;-1.666;2023-10-31T18:44:53;44.28;;;17.80;;
33987;SDS011;37428;53.580;-1.666;2023-10-31T18:48:02;286.45;;;29.25;;